createdAt,value
2023-02-17T00:00:23.647Z,10.12
2023-02-17T00:02:50.566Z,9.85
2023-02-17T00:05:17.503Z,9.84
2023-02-17T00:07:44.398Z,9.93
2023-02-17T00:10:11.408Z,9.92
2023-02-17T00:12:40.712Z,9.96
2023-02-17T00:15:10.262Z,9.82
2023-02-17T00:17:37.278Z,9.87
2023-02-17T00:20:05.049Z,9.78
2023-02-17T00:22:31.964Z,9.72
2023-02-17T00:25:01.832Z,9.59
2023-02-17T00:27:28.738Z,9.81
2023-02-17T00:29:55.693Z,9.81
2023-02-17T00:32:22.605Z,9.91
2023-02-17T00:34:56.859Z,10.08
2023-02-17T00:37:28.405Z,10.16
2023-02-17T00:39:55.325Z,9.96
2023-02-17T00:42:22.231Z,9.99
2023-02-17T00:44:51.303Z,9.91
2023-02-17T00:47:18.216Z,9.73
2023-02-17T00:49:47.540Z,9.73
2023-02-17T00:52:16.868Z,9.88
2023-02-17T00:54:43.719Z,9.82
2023-02-17T00:57:10.917Z,9.93
2023-02-17T00:59:37.813Z,10.08
2023-02-17T01:02:04.775Z,10.14
2023-02-17T01:04:34.729Z,10.01
2023-02-17T01:07:01.707Z,10.22
2023-02-17T01:09:31.801Z,10.14
2023-02-17T01:11:58.703Z,10.08
2023-02-17T01:14:25.731Z,10.16
2023-02-17T01:16:52.614Z,10.20
2023-02-17T01:19:19.916Z,10.44
2023-02-17T01:21:49.073Z,10.58
2023-02-17T01:24:15.942Z,10.57
2023-02-17T01:26:42.808Z,10.59
2023-02-17T01:29:12.255Z,10.47
2023-02-17T01:31:42.572Z,10.54
2023-02-17T01:34:10.926Z,10.54
2023-02-17T01:36:37.955Z,10.41
2023-02-17T01:39:07.288Z,10.56
2023-02-17T01:41:37.460Z,10.44
2023-02-17T01:44:15.256Z,10.40
2023-02-17T01:46:49.141Z,10.37
2023-02-17T01:49:23.676Z,10.55
2023-02-17T01:52:00.910Z,10.64
2023-02-17T01:54:44.167Z,10.84
2023-02-17T01:57:16.826Z,10.84
2023-02-17T01:59:45.464Z,10.90
2023-02-17T02:02:14.943Z,10.89
2023-02-17T02:04:48.434Z,10.89
2023-02-17T02:07:23.529Z,10.66
2023-02-17T02:09:55.945Z,11.04
2023-02-17T02:12:32.655Z,10.85
2023-02-17T02:15:09.123Z,10.85
2023-02-17T02:18:16.790Z,10.92
2023-02-17T02:21:25.547Z,10.92
2023-02-17T02:24:13.712Z,10.85
2023-02-17T02:26:57.420Z,11.08
2023-02-17T02:30:16.595Z,10.89
2023-02-17T02:33:11.863Z,11.15
2023-02-17T02:35:48.441Z,10.83
2023-02-17T02:38:41.340Z,10.80
2023-02-17T02:41:31.396Z,10.94
2023-02-17T02:44:09.129Z,11.03
2023-02-17T02:46:36.481Z,11.21
2023-02-17T02:49:04.838Z,10.98
2023-02-17T02:51:55.783Z,10.97
2023-02-17T02:54:29.273Z,11.08
2023-02-17T02:57:05.009Z,11.07
2023-02-17T03:00:10.218Z,11.19
2023-02-17T03:03:08.588Z,11.08
2023-02-17T03:05:45.288Z,11.27
2023-02-17T03:08:28.538Z,11.27
2023-02-17T03:10:58.126Z,11.22
2023-02-17T03:13:25.125Z,11.36
2023-02-17T03:15:52.312Z,11.56
2023-02-17T03:18:22.762Z,11.61
2023-02-17T03:20:57.795Z,11.54
2023-02-17T03:23:34.725Z,11.51
2023-02-17T03:26:01.706Z,11.45
2023-02-17T03:28:34.620Z,11.43
2023-02-17T03:31:04.478Z,11.39
2023-02-17T03:33:31.414Z,11.57
2023-02-17T03:36:03.143Z,11.95
2023-02-17T03:38:31.280Z,11.88
2023-02-17T03:41:01.255Z,11.75
2023-02-17T03:43:30.204Z,11.88
2023-02-17T03:45:57.665Z,11.95
2023-02-17T03:48:24.749Z,11.70
2023-02-17T03:50:56.704Z,11.68
2023-02-17T03:53:23.620Z,11.72
2023-02-17T03:55:50.469Z,11.82
2023-02-17T03:58:22.874Z,11.73
2023-02-17T04:00:52.315Z,11.65
2023-02-17T04:03:19.243Z,11.57
2023-02-17T04:05:48.761Z,11.62
2023-02-17T04:08:15.869Z,11.78
2023-02-17T04:10:45.184Z,11.82
2023-02-17T04:13:12.171Z,11.79
2023-02-17T04:15:44.616Z,11.51
2023-02-17T04:18:15.086Z,11.45
2023-02-17T04:20:43.209Z,11.49
2023-02-17T04:23:11.888Z,11.49
2023-02-17T04:25:38.973Z,11.60
2023-02-17T04:28:06.901Z,11.38
2023-02-17T04:30:34.602Z,11.47
2023-02-17T04:33:01.821Z,11.55
2023-02-17T04:35:28.736Z,11.37
2023-02-17T04:37:58.244Z,11.54
2023-02-17T04:40:25.163Z,11.44
2023-02-17T04:42:54.295Z,11.76
2023-02-17T04:45:25.909Z,11.79
2023-02-17T04:47:53.035Z,11.73
2023-02-17T04:50:22.501Z,11.83
2023-02-17T04:52:51.999Z,11.87
2023-02-17T04:55:21.568Z,12.07
2023-02-17T04:57:48.450Z,11.81
2023-02-17T05:00:15.751Z,11.62
2023-02-17T05:02:42.740Z,11.96
2023-02-17T05:05:09.773Z,11.70
2023-02-17T05:07:38.745Z,11.96
2023-02-17T05:10:08.525Z,12.07
2023-02-17T05:12:35.567Z,11.92
2023-02-17T05:15:02.872Z,12.03
2023-02-17T05:17:30.002Z,12.01
2023-02-17T05:19:57.136Z,11.91
2023-02-17T05:22:26.663Z,12.00
2023-02-17T05:24:56.289Z,12.01
2023-02-17T05:27:23.308Z,11.78
2023-02-17T05:29:51.454Z,11.68
2023-02-17T05:32:18.854Z,12.00
2023-02-17T05:34:52.808Z,11.69
2023-02-17T05:37:24.154Z,11.71
2023-02-17T05:39:51.031Z,11.81
2023-02-17T05:42:17.928Z,11.92
2023-02-17T05:44:49.952Z,11.64
2023-02-17T05:47:16.918Z,11.62
2023-02-17T05:49:46.368Z,12.02
2023-02-17T05:52:16.875Z,12.10
2023-02-17T05:54:48.875Z,12.10
2023-02-17T05:57:18.887Z,12.18
2023-02-17T05:59:45.745Z,12.13
2023-02-17T06:02:17.189Z,12.19
2023-02-17T06:04:44.135Z,12.29
2023-02-17T06:07:11.184Z,12.16
2023-02-17T06:09:41.006Z,12.04
2023-02-17T06:12:10.197Z,12.07
2023-02-17T06:14:40.525Z,11.99
2023-02-17T06:17:07.509Z,11.93
2023-02-17T06:19:34.381Z,11.95
2023-02-17T06:22:01.318Z,11.81
2023-02-17T06:24:32.780Z,12.00
2023-02-17T06:27:01.242Z,12.02
2023-02-17T06:29:28.158Z,12.19
2023-02-17T06:31:55.161Z,12.09
2023-02-17T06:34:22.150Z,12.29
2023-02-17T06:36:52.089Z,12.11
2023-02-17T06:39:23.608Z,12.08
2023-02-17T06:41:52.944Z,12.14
2023-02-17T06:44:22.449Z,12.13
2023-02-17T06:46:49.315Z,11.99
2023-02-17T06:49:18.503Z,11.86
2023-02-17T06:51:50.841Z,11.85
2023-02-17T06:54:17.775Z,11.83
2023-02-17T06:56:44.632Z,11.95
2023-02-17T06:59:11.704Z,11.93
2023-02-17T07:01:41.386Z,11.87
2023-02-17T07:04:12.904Z,11.83
2023-02-17T07:06:39.797Z,11.84
2023-02-17T07:09:06.636Z,11.63
2023-02-17T07:11:35.796Z,11.73
2023-02-17T07:14:02.959Z,11.67
2023-02-17T07:16:29.803Z,11.62
2023-02-17T07:19:00.240Z,11.76
2023-02-17T07:21:27.186Z,11.83
2023-02-17T07:23:54.184Z,11.68
2023-02-17T07:26:21.161Z,11.82
2023-02-17T07:28:48.233Z,11.85
2023-02-17T07:31:20.378Z,12.12
2023-02-17T07:33:48.668Z,11.74
2023-02-17T07:36:17.623Z,11.90
2023-02-17T07:38:44.981Z,11.71
2023-02-17T07:41:18.884Z,11.74
2023-02-17T07:43:47.268Z,11.94
2023-02-17T07:46:22.320Z,11.77
2023-02-17T07:48:49.203Z,11.57
2023-02-17T07:51:20.636Z,11.68
2023-02-17T07:53:51.585Z,11.68
2023-02-17T07:56:23.275Z,11.85
2023-02-17T07:58:50.413Z,11.80
2023-02-17T08:01:24.404Z,11.96
2023-02-17T08:03:52.099Z,11.84
2023-02-17T08:06:22.742Z,11.85
2023-02-17T08:09:09.720Z,11.72
2023-02-17T08:11:56.038Z,11.68
2023-02-17T08:14:25.413Z,11.80
2023-02-17T08:16:53.111Z,11.75
2023-02-17T08:19:20.156Z,12.03
2023-02-17T08:21:49.641Z,12.00
2023-02-17T08:24:16.667Z,11.80
2023-02-17T08:26:43.556Z,11.58
2023-02-17T08:29:12.957Z,11.77
2023-02-17T08:31:40.033Z,11.86
2023-02-17T08:34:10.490Z,11.79
2023-02-17T08:36:37.766Z,11.69
2023-02-17T08:39:16.405Z,11.58
2023-02-17T08:41:46.577Z,11.64
2023-02-17T08:44:16.965Z,11.90
2023-02-17T08:46:47.938Z,11.90
2023-02-17T08:49:21.067Z,11.75
2023-02-17T08:51:49.322Z,11.65
2023-02-17T08:54:16.520Z,11.96
2023-02-17T08:56:44.925Z,11.89
2023-02-17T08:59:13.345Z,12.00
2023-02-17T09:01:43.939Z,11.84
2023-02-17T09:04:14.295Z,11.81
2023-02-17T09:06:56.682Z,11.62
2023-02-17T09:09:29.302Z,11.80
2023-02-17T09:11:58.227Z,11.85
2023-02-17T09:14:27.781Z,11.96
2023-02-17T09:16:58.687Z,11.80
2023-02-17T09:19:26.309Z,11.90
2023-02-17T09:21:56.046Z,11.81
2023-02-17T09:24:23.210Z,11.90
2023-02-17T09:26:50.225Z,12.00
2023-02-17T09:29:19.747Z,12.03
2023-02-17T09:31:46.934Z,11.96
2023-02-17T09:34:14.772Z,12.08
2023-02-17T09:36:43.164Z,12.19
2023-02-17T09:39:14.924Z,12.17
2023-02-17T09:41:53.284Z,12.03
2023-02-17T09:44:26.051Z,12.01
2023-02-17T09:47:11.906Z,11.91
2023-02-17T09:49:49.583Z,12.12
2023-02-17T09:52:40.249Z,11.99
2023-02-17T09:55:15.578Z,12.10
2023-02-17T09:57:59.315Z,12.26
2023-02-17T10:00:33.768Z,12.14
2023-02-17T10:03:13.708Z,12.21
2023-02-17T10:05:51.693Z,12.28
2023-02-17T10:08:28.617Z,12.32
2023-02-17T10:11:08.075Z,12.37
2023-02-17T10:13:37.819Z,12.13
2023-02-17T10:16:10.750Z,12.29
2023-02-17T10:18:49.620Z,12.36
2023-02-17T10:21:29.857Z,12.38
2023-02-17T10:23:59.551Z,12.26
2023-02-17T10:26:53.535Z,12.20
2023-02-17T10:29:58.897Z,12.36
2023-02-17T10:32:28.649Z,12.39
2023-02-17T10:35:14.731Z,12.32
2023-02-17T10:37:48.312Z,12.33
2023-02-17T10:40:25.741Z,12.28
2023-02-17T10:43:00.934Z,12.15
2023-02-17T10:45:36.413Z,12.30
2023-02-17T10:48:08.664Z,12.26
2023-02-17T10:50:41.662Z,12.16
2023-02-17T10:53:25.126Z,12.21
2023-02-17T10:56:05.082Z,12.22
2023-02-17T10:58:56.913Z,12.25
2023-02-17T11:01:27.737Z,12.45
2023-02-17T11:04:13.956Z,12.38
2023-02-17T11:07:03.392Z,12.31
2023-02-17T11:09:33.159Z,12.63
2023-02-17T11:12:13.212Z,12.61
2023-02-17T11:14:47.337Z,12.53
2023-02-17T11:17:40.039Z,12.58
2023-02-17T11:20:29.736Z,12.73
2023-02-17T11:23:06.844Z,12.73
2023-02-17T11:25:37.816Z,12.82
2023-02-17T11:28:14.712Z,12.80
2023-02-17T11:30:52.268Z,12.65
2023-02-17T11:33:37.110Z,12.52
2023-02-17T11:36:07.556Z,12.55
2023-02-17T11:38:40.307Z,12.69
2023-02-17T11:41:08.464Z,12.61
2023-02-17T11:43:36.360Z,12.80
2023-02-17T11:46:24.215Z,13.01
2023-02-17T11:48:51.088Z,12.98
2023-02-17T11:51:50.567Z,12.75
2023-02-17T11:54:32.703Z,12.74
2023-02-17T11:57:28.768Z,12.61
2023-02-17T12:00:13.341Z,12.71
2023-02-17T12:03:05.044Z,12.47
2023-02-17T12:06:08.530Z,12.54
2023-02-17T12:09:32.133Z,12.49
2023-02-17T12:12:09.996Z,12.83
2023-02-17T12:14:45.739Z,12.94
2023-02-17T12:17:57.327Z,12.96
2023-02-17T12:20:37.007Z,12.78
2023-02-17T12:24:00.624Z,12.95
2023-02-17T12:26:38.501Z,12.74
2023-02-17T12:29:41.439Z,12.70
2023-02-17T12:32:22.562Z,12.98
2023-02-17T12:34:59.360Z,13.03
2023-02-17T12:37:32.974Z,13.04
2023-02-17T12:40:39.168Z,12.88
2023-02-17T12:43:39.904Z,12.87
2023-02-17T12:46:17.714Z,13.09
2023-02-17T12:48:55.734Z,12.93
2023-02-17T12:51:48.690Z,13.09
2023-02-17T12:54:35.893Z,12.83
2023-02-17T12:57:25.075Z,12.97
2023-02-17T12:59:57.286Z,12.91
2023-02-17T13:02:26.363Z,13.04
2023-02-17T13:04:59.601Z,13.08
2023-02-17T13:08:14.596Z,13.04
2023-02-17T13:10:41.743Z,13.01
2023-02-17T13:13:16.889Z,13.01
2023-02-17T13:15:48.549Z,13.18
2023-02-17T13:18:38.708Z,13.13
2023-02-17T13:21:22.827Z,13.44
2023-02-17T13:24:41.237Z,13.17
2023-02-17T13:27:33.901Z,13.10
2023-02-17T13:30:21.750Z,13.02
2023-02-17T13:33:02.561Z,13.04
2023-02-17T13:35:36.729Z,13.09
2023-02-17T13:38:04.518Z,13.22
2023-02-17T13:40:42.934Z,13.20
2023-02-17T13:43:17.378Z,13.16
2023-02-17T13:45:59.911Z,13.14
2023-02-17T13:48:34.758Z,13.18
2023-02-17T13:51:09.867Z,13.15
2023-02-17T13:53:40.493Z,12.98
2023-02-17T13:56:30.544Z,13.00
2023-02-17T13:59:18.284Z,13.00
2023-02-17T14:01:49.480Z,13.11
2023-02-17T14:04:28.281Z,13.17
2023-02-17T14:06:59.438Z,13.00
2023-02-17T14:09:34.893Z,13.06
2023-02-17T14:12:06.922Z,13.13
2023-02-17T14:14:37.939Z,13.29
2023-02-17T14:17:33.231Z,13.48
2023-02-17T14:20:00.995Z,13.37
2023-02-17T14:22:37.994Z,13.28
2023-02-17T14:25:14.203Z,13.25
2023-02-17T14:27:47.882Z,13.12
2023-02-17T14:30:28.399Z,13.32
2023-02-17T14:33:10.843Z,13.40
2023-02-17T14:35:39.374Z,13.22
2023-02-17T14:38:54.788Z,13.32
2023-02-17T14:41:24.177Z,13.23
2023-02-17T14:43:53.340Z,13.50
2023-02-17T14:46:22.933Z,13.56
2023-02-17T14:48:51.413Z,13.45
2023-02-17T14:51:22.424Z,13.33
2023-02-17T14:53:50.403Z,13.38
2023-02-17T14:56:32.612Z,13.41
2023-02-17T14:58:59.649Z,13.52
2023-02-17T15:01:26.780Z,13.32
2023-02-17T15:03:56.893Z,13.39
2023-02-17T15:06:41.624Z,13.47
2023-02-17T15:09:15.254Z,13.27
2023-02-17T15:11:45.673Z,13.51
2023-02-17T15:14:19.364Z,13.36
2023-02-17T15:16:50.437Z,13.43
2023-02-17T15:19:18.201Z,13.43
2023-02-17T15:21:51.141Z,13.51
2023-02-17T15:24:33.382Z,13.53
2023-02-17T15:27:02.872Z,13.41
2023-02-17T15:29:30.314Z,13.28
2023-02-17T15:32:03.503Z,12.95
2023-02-17T15:34:37.098Z,13.14
2023-02-17T15:37:04.025Z,12.97
2023-02-17T15:39:30.973Z,13.20
2023-02-17T15:42:10.452Z,13.27
2023-02-17T15:44:44.420Z,13.42
2023-02-17T15:47:19.057Z,13.66
2023-02-17T15:49:48.357Z,13.59
2023-02-17T15:52:15.748Z,13.33
2023-02-17T15:54:48.378Z,13.12
2023-02-17T15:57:24.472Z,12.98
2023-02-17T15:59:54.959Z,12.98
2023-02-17T16:02:24.515Z,12.98
2023-02-17T16:04:51.537Z,12.90
2023-02-17T16:07:18.563Z,12.61
2023-02-17T16:09:45.544Z,12.56
2023-02-17T16:12:19.145Z,12.39
2023-02-17T16:14:46.183Z,12.13
2023-02-17T16:17:16.984Z,12.17
2023-02-17T16:19:48.516Z,12.02
2023-02-17T16:22:18.531Z,12.02
2023-02-17T16:24:45.465Z,12.03
2023-02-17T16:27:15.965Z,12.03
2023-02-17T16:29:43.448Z,11.88
2023-02-17T16:32:13.778Z,11.71
2023-02-17T16:34:43.343Z,11.82
2023-02-17T16:37:20.972Z,11.80
2023-02-17T16:39:48.028Z,11.64
2023-02-17T16:42:15.700Z,11.49
2023-02-17T16:44:45.680Z,11.49
2023-02-17T16:47:22.642Z,11.39
2023-02-17T16:49:50.473Z,11.58
2023-02-17T16:52:26.100Z,11.61
2023-02-17T16:54:53.805Z,11.52
2023-02-17T16:57:23.775Z,11.39
2023-02-17T16:59:50.734Z,11.25
2023-02-17T17:02:22.334Z,11.26
2023-02-17T17:04:49.384Z,11.30
2023-02-17T17:07:18.349Z,11.23
2023-02-17T17:10:12.594Z,11.15
2023-02-17T17:12:35.200Z,10.97
2023-02-17T17:15:02.200Z,10.94
2023-02-17T17:17:30.244Z,10.88
2023-02-17T17:19:57.145Z,10.80
2023-02-17T17:22:26.198Z,10.90
2023-02-17T17:24:53.150Z,10.84
2023-02-17T17:27:20.158Z,10.87
2023-02-17T17:29:47.200Z,10.81
2023-02-17T17:32:17.870Z,10.77
2023-02-17T17:34:45.105Z,10.78
2023-02-17T17:37:14.564Z,10.70
2023-02-17T17:39:44.565Z,10.62
2023-02-17T17:42:11.977Z,10.60
2023-02-17T17:44:39.382Z,10.59
2023-02-17T17:47:21.327Z,10.49
2023-02-17T17:49:55.478Z,10.47
2023-02-17T17:52:23.019Z,10.48
2023-02-17T17:54:54.571Z,10.52
2023-02-17T17:57:23.795Z,10.45
2023-02-17T17:59:51.210Z,10.49
2023-02-17T18:02:18.160Z,10.33
2023-02-17T18:04:45.375Z,10.35
2023-02-17T18:07:12.540Z,10.47
2023-02-17T18:09:40.262Z,10.56
2023-02-17T18:12:16.608Z,10.56
2023-02-17T18:14:51.843Z,10.31
2023-02-17T18:17:23.153Z,10.39
2023-02-17T18:19:54.915Z,10.39
2023-02-17T18:22:24.593Z,10.19
2023-02-17T18:24:54.526Z,10.16
2023-02-17T18:27:23.727Z,10.23
2023-02-17T18:30:02.208Z,10.05
2023-02-17T18:32:29.615Z,10.09
2023-02-17T18:34:59.074Z,10.07
2023-02-17T18:37:26.175Z,10.15
2023-02-17T18:39:53.026Z,9.99
2023-02-17T18:42:19.980Z,9.96
2023-02-17T18:44:49.106Z,9.99
2023-02-17T18:47:16.094Z,10.16
2023-02-17T18:49:43.045Z,10.00
2023-02-17T18:52:10.534Z,9.93
2023-02-17T18:54:45.278Z,9.91
2023-02-17T18:57:12.516Z,9.87
2023-02-17T18:59:42.491Z,9.81
2023-02-17T19:02:11.412Z,9.90
2023-02-17T19:04:43.403Z,9.86
2023-02-17T19:07:10.744Z,9.81
2023-02-17T19:09:44.092Z,9.74
2023-02-17T19:12:16.208Z,9.73
2023-02-17T19:14:43.216Z,9.57
2023-02-17T19:17:11.306Z,9.75
2023-02-17T19:19:41.992Z,9.80
2023-02-17T19:22:09.545Z,9.70
2023-02-17T19:24:41.612Z,9.79
2023-02-17T19:27:09.088Z,9.76
2023-02-17T19:29:38.448Z,9.74
2023-02-17T19:32:05.589Z,9.76
2023-02-17T19:34:32.683Z,9.66
2023-02-17T19:37:04.338Z,9.65
2023-02-17T19:39:32.012Z,9.85
2023-02-17T19:41:58.974Z,9.58
2023-02-17T19:44:30.786Z,9.55
2023-02-17T19:47:00.299Z,9.54
2023-02-17T19:49:34.027Z,9.53
2023-02-17T19:52:01.147Z,9.49
2023-02-17T19:54:28.218Z,9.49
2023-02-17T19:56:57.423Z,9.39
2023-02-17T19:59:24.668Z,9.32
2023-02-17T20:01:51.769Z,9.33
2023-02-17T20:04:20.241Z,9.49
2023-02-17T20:06:48.238Z,9.42
2023-02-17T20:09:22.759Z,9.38
2023-02-17T20:11:53.525Z,9.36
2023-02-17T20:14:21.392Z,9.36
2023-02-17T20:16:53.307Z,9.42
2023-02-17T20:19:22.949Z,9.50
2023-02-17T20:21:54.507Z,9.31
2023-02-17T20:24:21.738Z,9.41
2023-02-17T20:26:53.598Z,9.44
2023-02-17T20:29:20.796Z,9.60
2023-02-17T20:31:48.100Z,9.51
2023-02-17T20:34:33.477Z,9.33
2023-02-17T20:37:07.913Z,9.46
2023-02-17T20:39:39.751Z,9.43
2023-02-17T20:42:06.774Z,9.32
2023-02-17T20:44:38.805Z,9.30
2023-02-17T20:47:06.056Z,9.32
2023-02-17T20:49:36.315Z,9.29
2023-02-17T20:52:03.514Z,9.24
2023-02-17T20:54:35.837Z,9.27
2023-02-17T20:57:05.260Z,9.30
2023-02-17T20:59:33.234Z,9.33
2023-02-17T21:02:00.161Z,9.37
2023-02-17T21:04:27.256Z,9.29
2023-02-17T21:06:56.866Z,9.28
2023-02-17T21:09:26.477Z,9.27
2023-02-17T21:11:53.978Z,9.50
2023-02-17T21:14:22.948Z,9.46
2023-02-17T21:16:52.964Z,9.26
2023-02-17T21:19:22.883Z,9.17
2023-02-17T21:21:49.834Z,9.06
2023-02-17T21:24:22.589Z,9.16
2023-02-17T21:26:52.098Z,9.11
2023-02-17T21:29:21.974Z,9.04
2023-02-17T21:31:49.019Z,9.28
2023-02-17T21:34:18.136Z,9.08
2023-02-17T21:36:47.674Z,9.06
2023-02-17T21:39:17.666Z,9.08
2023-02-17T21:41:44.540Z,9.10
2023-02-17T21:44:32.600Z,9.07
2023-02-17T21:46:59.495Z,9.08
2023-02-17T21:49:28.654Z,9.24
2023-02-17T21:52:01.059Z,9.07
2023-02-17T21:54:28.000Z,8.95
2023-02-17T21:56:54.974Z,9.00
2023-02-17T21:59:21.904Z,9.16
2023-02-17T22:01:48.820Z,8.94
2023-02-17T22:04:15.719Z,9.09
2023-02-17T22:06:46.209Z,9.06
2023-02-17T22:09:18.276Z,9.07
2023-02-17T22:11:49.513Z,9.14
2023-02-17T22:14:20.795Z,9.03
2023-02-17T22:16:49.174Z,8.96
2023-02-17T22:19:22.540Z,9.02
2023-02-17T22:21:51.427Z,9.02
2023-02-17T22:24:20.748Z,8.90
2023-02-17T22:26:50.241Z,8.87
2023-02-17T22:29:17.157Z,8.79
2023-02-17T22:31:44.252Z,9.10
2023-02-17T22:34:14.035Z,8.88
2023-02-17T22:36:41.110Z,8.84
2023-02-17T22:39:08.678Z,8.94
2023-02-17T22:41:36.733Z,9.05
2023-02-17T22:44:09.205Z,8.97
2023-02-17T22:46:41.687Z,9.01
2023-02-17T22:49:14.185Z,8.93
2023-02-17T22:51:41.348Z,8.97
2023-02-17T22:54:09.136Z,9.04
2023-02-17T22:56:39.077Z,9.09
2023-02-17T22:59:07.063Z,9.04
2023-02-17T23:01:38.189Z,9.20
2023-02-17T23:04:05.813Z,8.99
2023-02-17T23:06:38.066Z,9.01
2023-02-17T23:09:10.406Z,8.93
2023-02-17T23:11:49.964Z,8.99
2023-02-17T23:14:25.643Z,8.96
2023-02-17T23:17:00.179Z,9.06
2023-02-17T23:19:33.317Z,9.09
2023-02-17T23:22:05.584Z,8.93
2023-02-17T23:24:34.735Z,8.90
2023-02-17T23:27:03.255Z,8.98
2023-02-17T23:29:33.666Z,8.80
2023-02-17T23:32:04.022Z,8.88
2023-02-17T23:34:31.246Z,8.90
2023-02-17T23:37:00.924Z,8.98
2023-02-17T23:39:28.291Z,8.85
2023-02-17T23:41:57.389Z,8.90
2023-02-17T23:44:24.498Z,8.97
2023-02-17T23:46:54.014Z,8.83
2023-02-17T23:49:21.020Z,8.79
2023-02-17T23:51:50.104Z,8.81
2023-02-17T23:54:17.032Z,8.57
2023-02-17T23:56:46.253Z,8.66
2023-02-17T23:59:14.822Z,8.68
